Zadar, Croatia

11:51 PM CET on March 04, 2015 (GMT +0100)
Zemunik | Change Station
CLOSE
Current Station
Airport
Location: Zadar,
Elevation: 269 ft
Nearby Weather Stations

Elev 269 ft 44.10 °N, 15.36 °E | Updated 21 minutes ago

Light Rain
Light Rain
45 °F
Feels Like 39 °F
N
12
Wind Variable Wind from ENE

Today
High -- | Low -- °F
--% Chance of Precip.
Yesterday
High -- | Low -- °F
Precip. -- in
6:31 AM 5:50 PM
Waxing Gibbous, 99% visible
Pressure 29.95 in
Visibility 6.2 miles
Clouds Few 2000 ft
Mostly Cloudy 3000 ft
Overcast 6000 ft
Windchill 39 °F
Dew Point 39 °F
Humidity 81%
Rainfall 0.00 in
Snow Depth Not available.
UV 0 out of 12
Pollen Not available.
Air Quality Not available.
Flu Activity Not available.
METAR LDZD 042230Z 07010KT 010V110 9999 -RA FEW020 BKN030 OVC060 07/04 Q1014

More Conditions Fewer Conditions

Pressure 29.95 in
Visibility 6.2 miles
Clouds Few 2000 ft
Mostly Cloudy 3000 ft
Overcast 6000 ft
Windchill 39 °F
Dew Point 39 °F
Humidity 81%
Rainfall 0.00 in
Snow Depth Not available.
UV 0 out of 12
Pollen Not available.
Air Quality Not available.
Flu Activity Not available.
METAR LDZD 042230Z 07010KT 010V110 9999 -RA FEW020 BKN030 OVC060 07/04 Q1014

More Conditions Fewer Conditions

10-Day Weather Forecast

Almanac

Astronomy

Mar. 04, 2015 Rise Set
Actual Time
Civil Twilight
Nautical Twilight
Astronomical Twilight
Moon
Length of Visible Light
Length of Day
Tomorrow will be .
, % of the Moon is Illuminated

Today's Extremes

Country Highs Country Lows

Community

WunderPhotos

Upload Photos

1,802,595 photos uploaded!

WunderBlogs® & News

Nearby

Air Quality

  Air Quality AQ Index Pollutant
Not available.

Snow Depth

Station Depth Elevation

Earthquake Activity

City Distance Mag. Time & Date
Minimum magnitude displayed is 2.5.

Coastal Water Temperatures

Place Temperature

Nearby Weather Stations